createdAt,value
2023-02-11T00:01:40.670Z,2.72
2023-02-11T00:04:46.943Z,2.98
2023-02-11T00:07:53.174Z,3.18
2023-02-11T00:11:00.137Z,3.12
2023-02-11T00:14:09.011Z,2.59
2023-02-11T00:17:15.597Z,2.13
2023-02-11T00:20:22.468Z,1.81
2023-02-11T00:23:28.693Z,1.57
2023-02-11T00:26:37.103Z,1.39
2023-02-11T00:29:43.776Z,1.22
2023-02-11T00:32:50.015Z,1.09
2023-02-11T00:35:56.150Z,0.98
2023-02-11T00:39:02.646Z,0.98
2023-02-11T00:42:08.969Z,1.48
2023-02-11T00:45:13.837Z,2.01
2023-02-11T00:48:20.302Z,2.37
2023-02-11T00:51:27.215Z,2.67
2023-02-11T00:54:33.442Z,2.91
2023-02-11T00:57:39.744Z,3.00
2023-02-11T01:00:44.250Z,2.55
2023-02-11T01:03:50.731Z,2.09
2023-02-11T01:06:57.006Z,1.76
2023-02-11T01:10:04.425Z,1.50
2023-02-11T01:13:10.828Z,1.28
2023-02-11T01:16:15.717Z,1.07
2023-02-11T01:19:22.043Z,0.90
2023-02-11T01:22:26.545Z,0.73
2023-02-11T01:25:32.749Z,0.57
2023-02-11T01:28:39.078Z,0.42
2023-02-11T01:31:43.692Z,0.29
2023-02-11T01:34:50.010Z,0.16
2023-02-11T01:37:55.242Z,0.14
2023-02-11T01:41:03.560Z,0.61
2023-02-11T01:44:33.639Z,1.13
2023-02-11T01:47:39.773Z,1.55
2023-02-11T01:50:47.015Z,1.82
2023-02-11T01:54:12.128Z,2.05
2023-02-11T01:57:25.208Z,2.23
2023-02-11T02:00:37.066Z,2.38
2023-02-11T02:03:48.157Z,2.38
2023-02-11T02:07:01.026Z,1.85
2023-02-11T02:10:13.287Z,1.33
2023-02-11T02:13:19.522Z,0.92
2023-02-11T02:16:31.270Z,0.64
2023-02-11T02:20:02.073Z,0.41
2023-02-11T02:23:21.203Z,0.17
2023-02-11T02:26:53.899Z,-0.03
2023-02-11T02:30:25.792Z,-0.05
2023-02-11T02:33:51.437Z,0.54
2023-02-11T02:37:06.063Z,1.03
2023-02-11T02:40:17.056Z,1.37
2023-02-11T02:43:25.053Z,1.64
2023-02-11T02:46:32.880Z,1.84
2023-02-11T02:49:39.008Z,2.01
2023-02-11T02:52:56.047Z,2.04
2023-02-11T02:56:12.123Z,1.49
2023-02-11T02:59:26.693Z,0.96
2023-02-11T03:02:36.689Z,0.59
2023-02-11T03:05:53.721Z,0.34
2023-02-11T03:09:05.966Z,0.15
2023-02-11T03:12:14.336Z,0.01
2023-02-11T03:15:22.674Z,-0.11
2023-02-11T03:18:32.717Z,-0.22
2023-02-11T03:21:42.131Z,-0.21
2023-02-11T03:24:48.918Z,0.33
2023-02-11T03:27:58.902Z,0.86
2023-02-11T03:31:16.096Z,1.27
2023-02-11T03:34:29.675Z,1.59
2023-02-11T03:37:41.079Z,1.84
2023-02-11T03:40:48.524Z,2.06
2023-02-11T03:43:57.459Z,2.27
2023-02-11T03:47:06.811Z,2.45
2023-02-11T03:50:16.476Z,2.62
2023-02-11T03:53:24.078Z,2.64
2023-02-11T03:56:34.508Z,2.12
2023-02-11T03:59:56.384Z,1.63
2023-02-11T04:03:02.696Z,1.27
2023-02-11T04:06:07.956Z,1.02
2023-02-11T04:09:15.040Z,0.83
2023-02-11T04:12:21.318Z,0.67
2023-02-11T04:15:27.639Z,0.62
2023-02-11T04:18:32.224Z,1.09
2023-02-11T04:21:38.512Z,1.58
2023-02-11T04:24:44.120Z,1.97
2023-02-11T04:27:50.370Z,2.24
2023-02-11T04:30:54.978Z,2.48
2023-02-11T04:34:01.327Z,2.68
2023-02-11T04:37:08.514Z,2.89
2023-02-11T04:40:15.115Z,3.04
2023-02-11T04:43:21.346Z,3.05
2023-02-11T04:46:27.886Z,2.56
2023-02-11T04:49:34.201Z,2.09
2023-02-11T04:52:40.405Z,1.76
2023-02-11T04:55:46.705Z,1.51
2023-02-11T04:58:52.866Z,1.31
2023-02-11T05:01:59.158Z,1.26
2023-02-11T05:05:03.683Z,1.73
2023-02-11T05:08:10.376Z,2.20
2023-02-11T05:11:19.863Z,2.58
2023-02-11T05:14:26.145Z,2.86
2023-02-11T05:17:30.703Z,3.09
2023-02-11T05:20:38.738Z,3.26
2023-02-11T05:23:45.658Z,3.34
2023-02-11T05:26:51.934Z,2.89
2023-02-11T05:29:58.292Z,2.41
2023-02-11T05:33:02.841Z,2.07
2023-02-11T05:36:12.127Z,1.83
2023-02-11T05:39:18.854Z,1.62
2023-02-11T05:42:25.065Z,1.46
2023-02-11T05:45:31.551Z,1.32
2023-02-11T05:48:37.855Z,1.32
2023-02-11T05:51:42.321Z,1.85
2023-02-11T05:54:48.511Z,2.33
2023-02-11T05:57:54.769Z,2.73
2023-02-11T06:00:59.285Z,3.02
2023-02-11T06:04:05.576Z,3.24
2023-02-11T06:07:10.066Z,3.49
2023-02-11T06:10:16.470Z,3.66
2023-02-11T06:13:21.112Z,3.73
2023-02-11T06:16:27.418Z,3.26
2023-02-11T06:19:32.496Z,2.83
2023-02-11T06:22:38.735Z,2.52
2023-02-11T06:25:44.922Z,2.28
2023-02-11T06:28:51.481Z,2.08
2023-02-11T06:31:57.889Z,1.91
2023-02-11T06:35:04.166Z,1.77
2023-02-11T06:38:10.384Z,1.65
2023-02-11T06:41:19.370Z,1.70
2023-02-11T06:44:25.568Z,2.25
2023-02-11T06:47:31.842Z,2.75
2023-02-11T06:50:36.577Z,3.11
2023-02-11T06:53:45.002Z,3.35
2023-02-11T06:56:51.410Z,3.59
2023-02-11T06:59:56.027Z,3.82
2023-02-11T07:03:02.379Z,3.90
2023-02-11T07:06:08.180Z,3.54
2023-02-11T07:09:14.414Z,3.15
2023-02-11T07:12:20.636Z,2.92
2023-02-11T07:15:26.953Z,2.75
2023-02-11T07:18:31.572Z,2.62
2023-02-11T07:21:37.650Z,2.52
2023-02-11T07:24:43.916Z,2.46
2023-02-11T07:27:48.392Z,2.41
2023-02-11T07:30:54.734Z,2.37
2023-02-11T07:34:02.540Z,2.47
2023-02-11T07:37:09.063Z,3.08
2023-02-11T07:40:15.452Z,3.68
2023-02-11T07:43:20.056Z,4.14
2023-02-11T07:46:28.051Z,4.48
2023-02-11T07:49:34.372Z,4.69
2023-02-11T07:52:38.899Z,4.35
2023-02-11T07:55:45.531Z,4.02
2023-02-11T07:58:52.108Z,3.83
2023-02-11T08:01:58.301Z,3.66
2023-02-11T08:05:04.605Z,3.56
2023-02-11T08:08:09.181Z,3.48
2023-02-11T08:11:17.439Z,3.39
2023-02-11T08:14:25.375Z,3.31
2023-02-11T08:17:31.660Z,3.24
2023-02-11T08:20:37.857Z,3.19
2023-02-11T08:23:45.724Z,3.15
2023-02-11T08:26:52.133Z,3.12
2023-02-11T08:29:56.624Z,3.10
2023-02-11T08:33:02.937Z,3.09
2023-02-11T08:36:14.021Z,3.10
2023-02-11T08:39:22.555Z,3.10
2023-02-11T08:42:28.852Z,3.11
2023-02-11T08:45:35.223Z,3.11
2023-02-11T08:48:41.676Z,3.11
2023-02-11T08:51:46.518Z,3.22
2023-02-11T08:54:52.757Z,3.80
2023-02-11T08:57:59.060Z,4.40
2023-02-11T09:01:10.111Z,4.85
2023-02-11T09:04:16.371Z,5.09
2023-02-11T09:07:22.610Z,4.78
2023-02-11T09:10:28.872Z,4.48
2023-02-11T09:13:33.863Z,4.31
2023-02-11T09:16:40.171Z,4.19
2023-02-11T09:19:44.791Z,4.13
2023-02-11T09:22:50.977Z,4.08
2023-02-11T09:25:57.317Z,4.07
2023-02-11T09:29:02.246Z,4.07
2023-02-11T09:32:10.004Z,4.10
2023-02-11T09:35:16.362Z,4.14
2023-02-11T09:38:23.725Z,4.19
2023-02-11T09:41:56.360Z,4.26
2023-02-11T09:45:04.701Z,4.35
2023-02-11T09:48:17.078Z,4.48
2023-02-11T09:51:32.709Z,4.62
2023-02-11T09:54:44.576Z,4.80
2023-02-11T09:57:51.265Z,5.00
2023-02-11T10:01:09.900Z,5.19
2023-02-11T10:04:28.888Z,5.37
2023-02-11T10:07:42.190Z,5.55
2023-02-11T10:10:55.169Z,5.69
2023-02-11T10:14:12.279Z,5.83
2023-02-11T10:17:29.950Z,5.95
2023-02-11T10:20:46.182Z,6.02
2023-02-11T10:23:58.392Z,6.09
2023-02-11T10:27:10.114Z,6.15
2023-02-11T10:30:25.263Z,6.23
2023-02-11T10:33:38.244Z,6.31
2023-02-11T10:36:45.798Z,6.37
2023-02-11T10:39:52.096Z,6.46
2023-02-11T10:42:59.153Z,6.54
2023-02-11T10:46:06.506Z,6.59
2023-02-11T10:49:33.062Z,6.66
2023-02-11T10:52:39.250Z,6.75
2023-02-11T10:55:54.427Z,6.85
2023-02-11T10:59:02.930Z,6.94
2023-02-11T11:02:24.947Z,7.02
2023-02-11T11:05:35.532Z,7.09
2023-02-11T11:08:44.478Z,7.13
2023-02-11T11:11:55.852Z,7.16
2023-02-11T11:15:03.745Z,7.18
2023-02-11T11:18:22.568Z,7.17
2023-02-11T11:21:35.572Z,7.11
2023-02-11T11:24:46.683Z,7.08
2023-02-11T11:27:54.989Z,7.09
2023-02-11T11:31:02.506Z,7.13
2023-02-11T11:34:23.231Z,7.21
2023-02-11T11:37:31.825Z,7.29
2023-02-11T11:40:39.540Z,7.37
2023-02-11T11:44:00.560Z,7.40
2023-02-11T11:47:30.999Z,7.44
2023-02-11T11:50:41.192Z,7.48
2023-02-11T11:53:52.916Z,7.56
2023-02-11T11:57:03.975Z,7.60
2023-02-11T12:00:18.537Z,7.62
2023-02-11T12:03:52.072Z,7.62
2023-02-11T12:07:12.751Z,7.68
2023-02-11T12:10:47.518Z,7.77
2023-02-11T12:14:03.950Z,7.79
2023-02-11T12:17:21.502Z,7.77
2023-02-11T12:20:37.544Z,7.78
2023-02-11T12:23:58.970Z,7.81
2023-02-11T12:27:13.194Z,7.83
2023-02-11T12:30:40.446Z,7.85
2023-02-11T12:34:19.233Z,7.81
2023-02-11T12:37:37.714Z,7.73
2023-02-11T12:40:51.808Z,7.63
2023-02-11T12:43:58.361Z,7.56
2023-02-11T12:47:15.550Z,7.50
2023-02-11T12:50:29.450Z,7.42
2023-02-11T12:54:08.066Z,7.33
2023-02-11T12:57:19.421Z,7.25
2023-02-11T13:00:31.466Z,7.21
2023-02-11T13:03:46.558Z,7.14
2023-02-11T13:06:56.891Z,7.08
2023-02-11T13:10:07.739Z,7.02
2023-02-11T13:13:20.552Z,6.97
2023-02-11T13:16:36.458Z,6.90
2023-02-11T13:19:50.608Z,6.83
2023-02-11T13:23:03.420Z,6.76
2023-02-11T13:26:20.397Z,6.69
2023-02-11T13:29:34.898Z,6.63
2023-02-11T13:33:18.371Z,6.58
2023-02-11T13:36:28.311Z,6.53
2023-02-11T13:39:34.661Z,6.48
2023-02-11T13:42:52.619Z,6.45
2023-02-11T13:46:02.416Z,6.41
2023-02-11T13:49:19.828Z,6.36
2023-02-11T13:52:31.013Z,6.31
2023-02-11T13:55:38.240Z,6.29
2023-02-11T13:58:52.308Z,6.26
2023-02-11T14:02:40.646Z,6.23
2023-02-11T14:06:34.730Z,6.18
2023-02-11T14:09:42.325Z,6.13
2023-02-11T14:13:19.229Z,6.11
2023-02-11T14:16:37.308Z,6.08
2023-02-11T14:19:46.318Z,6.06
2023-02-11T14:22:54.650Z,6.03
2023-02-11T14:26:24.659Z,6.00
2023-02-11T14:29:39.016Z,5.97
2023-02-11T14:32:57.365Z,5.95
2023-02-11T14:36:12.679Z,5.92
2023-02-11T14:39:29.940Z,5.88
2023-02-11T14:42:38.090Z,5.85
2023-02-11T14:45:53.114Z,5.83
2023-02-11T14:49:02.567Z,5.79
2023-02-11T14:52:18.364Z,5.76
2023-02-11T14:55:33.128Z,5.73
2023-02-11T14:58:39.354Z,5.70
2023-02-11T15:01:50.907Z,5.68
2023-02-11T15:05:16.180Z,5.66
2023-02-11T15:08:22.503Z,5.75
2023-02-11T15:11:27.117Z,6.33
2023-02-11T15:14:36.549Z,6.84
2023-02-11T15:17:44.862Z,7.25
2023-02-11T15:20:52.545Z,7.56
2023-02-11T15:24:06.175Z,7.80
2023-02-11T15:27:16.305Z,7.82
2023-02-11T15:30:31.017Z,7.33
2023-02-11T15:33:37.259Z,6.88
2023-02-11T15:36:44.016Z,6.58
2023-02-11T15:39:50.994Z,6.36
2023-02-11T15:42:59.024Z,6.29
2023-02-11T15:46:05.872Z,6.74
2023-02-11T15:49:21.591Z,7.19
2023-02-11T15:52:29.448Z,7.53
2023-02-11T15:55:36.661Z,7.76
2023-02-11T15:58:44.992Z,7.90
2023-02-11T16:01:51.892Z,8.04
2023-02-11T16:05:00.059Z,8.15
2023-02-11T16:08:22.137Z,8.25
2023-02-11T16:11:31.897Z,8.37
2023-02-11T16:14:39.400Z,8.45
2023-02-11T16:17:47.110Z,8.54
2023-02-11T16:20:54.127Z,8.57
2023-02-11T16:24:01.063Z,8.54
2023-02-11T16:27:09.362Z,8.54
2023-02-11T16:30:29.021Z,8.54
2023-02-11T16:33:35.127Z,8.54
2023-02-11T16:36:41.454Z,8.55
2023-02-11T16:39:46.157Z,8.54
2023-02-11T16:42:53.621Z,8.52
2023-02-11T16:46:01.022Z,8.54
2023-02-11T16:49:13.921Z,8.56
2023-02-11T16:52:21.866Z,8.56
2023-02-11T16:55:28.081Z,8.53
2023-02-11T16:58:34.379Z,8.48
2023-02-11T17:01:39.730Z,8.45
2023-02-11T17:04:46.506Z,8.39
2023-02-11T17:07:52.824Z,8.39
2023-02-11T17:10:59.084Z,8.37
2023-02-11T17:14:03.752Z,8.36
2023-02-11T17:17:10.400Z,8.32
2023-02-11T17:20:18.392Z,8.32
2023-02-11T17:23:24.509Z,8.31
2023-02-11T17:26:30.787Z,8.31
2023-02-11T17:29:35.247Z,8.32
2023-02-11T17:32:41.560Z,8.31
2023-02-11T17:35:46.085Z,8.35
2023-02-11T17:38:52.596Z,8.33
2023-02-11T17:41:58.850Z,8.36
2023-02-11T17:45:05.422Z,8.36
2023-02-11T17:48:11.661Z,8.34
2023-02-11T17:51:29.521Z,8.33
2023-02-11T17:54:36.089Z,8.32
2023-02-11T17:57:42.698Z,8.31
2023-02-11T18:00:48.913Z,8.30
2023-02-11T18:03:53.559Z,8.30
2023-02-11T18:06:59.905Z,8.28
2023-02-11T18:10:06.419Z,8.31
2023-02-11T18:13:13.467Z,8.31
2023-02-11T18:16:19.662Z,8.36
2023-02-11T18:19:25.925Z,8.35
2023-02-11T18:22:33.720Z,8.31
2023-02-11T18:25:42.342Z,8.26
2023-02-11T18:28:49.141Z,8.28
2023-02-11T18:31:57.925Z,8.28
2023-02-11T18:35:04.397Z,8.28
2023-02-11T18:38:10.981Z,8.23
2023-02-11T18:41:17.535Z,8.19
2023-02-11T18:44:24.798Z,8.16
2023-02-11T18:47:32.452Z,8.16
2023-02-11T18:50:38.751Z,8.13
2023-02-11T18:53:43.434Z,8.15
2023-02-11T18:56:49.665Z,8.10
2023-02-11T18:59:55.998Z,8.13
2023-02-11T19:03:00.482Z,8.13
2023-02-11T19:06:07.491Z,8.08
2023-02-11T19:09:16.957Z,8.09
2023-02-11T19:12:23.240Z,8.14
2023-02-11T19:15:29.528Z,8.15
2023-02-11T19:18:34.170Z,8.12
2023-02-11T19:21:40.598Z,8.07
2023-02-11T19:24:45.158Z,8.09
2023-02-11T19:27:51.389Z,8.06
2023-02-11T19:30:57.825Z,8.07
2023-02-11T19:34:05.279Z,8.08
2023-02-11T19:37:13.352Z,8.11
2023-02-11T19:40:21.362Z,8.08
2023-02-11T19:43:27.666Z,8.04
2023-02-11T19:46:36.518Z,8.01
2023-02-11T19:49:42.861Z,7.97
2023-02-11T19:52:49.323Z,7.96
2023-02-11T19:55:55.600Z,7.95
2023-02-11T19:59:02.666Z,7.96
2023-02-11T20:02:09.012Z,7.96
2023-02-11T20:05:13.547Z,7.97
2023-02-11T20:08:19.740Z,7.96
2023-02-11T20:11:28.235Z,8.01
2023-02-11T20:14:34.611Z,8.00
2023-02-11T20:17:40.950Z,7.98
2023-02-11T20:20:45.419Z,7.98
2023-02-11T20:23:52.794Z,7.95
2023-02-11T20:26:59.062Z,7.99
2023-02-11T20:30:05.540Z,7.97
2023-02-11T20:33:11.754Z,7.95
2023-02-11T20:36:19.670Z,7.95
2023-02-11T20:39:27.348Z,7.94
2023-02-11T20:42:33.626Z,7.95
2023-02-11T20:45:40.093Z,7.97
2023-02-11T20:48:46.398Z,7.99
2023-02-11T20:51:51.338Z,8.04
2023-02-11T20:54:57.542Z,8.06
2023-02-11T20:58:03.927Z,8.10
2023-02-11T21:01:16.804Z,8.12
2023-02-11T21:04:25.582Z,8.15
2023-02-11T21:07:31.836Z,8.16
2023-02-11T21:10:38.102Z,8.12
2023-02-11T21:13:44.818Z,8.10
2023-02-11T21:16:51.642Z,8.10
2023-02-11T21:19:58.012Z,8.13
2023-02-11T21:23:02.575Z,8.16
2023-02-11T21:26:09.700Z,8.15
2023-02-11T21:29:16.015Z,8.20
2023-02-11T21:32:20.628Z,8.16
2023-02-11T21:35:26.884Z,8.12
2023-02-11T21:38:33.662Z,8.12
2023-02-11T21:41:39.894Z,8.14
2023-02-11T21:44:46.173Z,8.14
2023-02-11T21:47:52.453Z,8.13
2023-02-11T21:50:59.102Z,8.12
2023-02-11T21:54:05.634Z,8.12
2023-02-11T21:57:11.828Z,8.15
2023-02-11T22:00:19.760Z,8.16
2023-02-11T22:03:26.075Z,8.18
2023-02-11T22:06:34.968Z,8.19
2023-02-11T22:09:43.178Z,8.16
2023-02-11T22:12:49.869Z,8.18
2023-02-11T22:16:02.542Z,8.19
2023-02-11T22:19:09.005Z,8.19
2023-02-11T22:22:18.395Z,8.20
2023-02-11T22:25:24.697Z,8.21
2023-02-11T22:28:30.923Z,8.21
2023-02-11T22:31:38.051Z,8.23
2023-02-11T22:34:44.626Z,8.27
2023-02-11T22:37:51.217Z,8.25
2023-02-11T22:40:57.535Z,8.26
2023-02-11T22:44:02.222Z,8.28
2023-02-11T22:47:08.541Z,8.24
2023-02-11T22:50:13.465Z,8.26
2023-02-11T22:53:19.730Z,8.22
2023-02-11T22:56:26.772Z,8.23
2023-02-11T22:59:33.062Z,8.25
2023-02-11T23:02:39.531Z,8.25
2023-02-11T23:05:45.817Z,8.25
2023-02-11T23:08:52.093Z,8.24
2023-02-11T23:11:58.008Z,8.23
2023-02-11T23:15:05.216Z,8.22
2023-02-11T23:18:12.362Z,8.24
2023-02-11T23:21:21.309Z,8.23
2023-02-11T23:24:27.668Z,8.24
2023-02-11T23:27:32.225Z,8.23
2023-02-11T23:30:38.501Z,8.22
2023-02-11T23:33:43.050Z,8.25
2023-02-11T23:36:49.298Z,8.25
2023-02-11T23:39:55.527Z,8.27
2023-02-11T23:43:01.833Z,8.26
2023-02-11T23:46:07.000Z,8.25
2023-02-11T23:49:13.234Z,8.20
2023-02-11T23:52:19.657Z,8.23
2023-02-11T23:55:25.952Z,8.24
2023-02-11T23:58:32.608Z,8.21
